Rocky Butte, Washington
Current Conditions -  °F | °C
As of 5:53 AM on Friday 24 Oct 2014 (Local Time) from KOMK Reporting Station
Overcast Overcast  
Wind Chill:   Ceiling: 10000
Heat Index:   Visibility: 10mi
Dew Point:   Wind: 6mph
Humidity: 86%   Direction: 300°WNW
Pressure: 30.04"   Gusts: NA
Location:  48.2133°N, 119.829°W
Report Text: KOMK 241253Z AUTO 30005KT 10SM OVC100 03/01 A3004 RMK AO2 SLP180 T00280006
Loading
Personal Weather Stations






























Interactive Weather Map
Tropical Storm Tracking
New forecast layout! Learn more

10-Day Weather Forecast

Advertisements
Track Severe Weather on mobile